Hovedside
METAR-TAF:

METAR-TAF

Lufthavner :

Jeddah, Saudi-Arabia

breddegrad: 21-42N, lengdegrad: 039-11E, høyde over havet: 15 m

Gjeldene værobservasjon

Denne rapporten ble laget for 16 minutter siden, klokken 08:00 UTC
Vind 8 kt fra Nordvest
Temperatur 38°C
Luftfuktighet 40%
Trykk 1001 hPa
Sikt 10 km eller mer
ingen skyer under 1500 m og ingen bygeskyer

METAR: OEJN 230800Z 31008KT CAVOK 38/22 Q1001 NOSIG

Tid: 11:16 (08:16 UTC)

Varsel

Denne rapporten ble laget for 3 timer og 16 minutter siden, klokken 05:00 UTC
Varsel gyldig fra 23. klokken 06 UTC til 24. klokken 12 UTC
Vind 14 kt fra Vest
Sikt 10 km eller mer
Spredte skyer i en høyde av 4000 ft
Blir
fra 23. klokken 18 UTC til 23. klokken 20 UTC
Vind 6 kt fra Nord

TAF: OEJN 230500Z 2306/2412 27014KT 9999 SCT040 BECMG 2318/2320 36006KT

Værobservasjoner og værvarsel for over 4000 flyplasser (METAR- og TAF-rapporter).

Tilgjengelige stasjoner er representert av de røde og gule prikkene på kartet.

Hold musepekeren over prikken for å se navnet på stasjonen.

Klikk så for å se værobservasjoner og -varsler.

For å forandre kartet kan du klikke på den grønne knappen med svart kryss for å zoome inn, på den grønne knappen med strek for å zoome ut, eller på de grønne pilene for å se tilstøtende kart.


METAR-TAF: